sensor_id;sensor_type;location;lat;lon;timestamp;temperature;humidity
25949;DHT22;13961;51.178;4.448;2022-08-19T00:00:14;20.90;99.90
25949;DHT22;13961;51.178;4.448;2022-08-19T00:02:40;20.70;99.90
25949;DHT22;13961;51.178;4.448;2022-08-19T00:05:06;20.60;99.90
25949;DHT22;13961;51.178;4.448;2022-08-19T00:07:33;20.60;99.90
25949;DHT22;13961;51.178;4.448;2022-08-19T00:09:59;20.70;99.90
25949;DHT22;13961;51.178;4.448;2022-08-19T00:12:25;20.80;99.90
25949;DHT22;13961;51.178;4.448;2022-08-19T00:14:50;20.80;99.90
25949;DHT22;13961;51.178;4.448;2022-08-19T00:17:18;20.80;99.90
25949;DHT22;13961;51.178;4.448;2022-08-19T00:19:43;20.80;99.90
25949;DHT22;13961;51.178;4.448;2022-08-19T00:22:09;20.60;99.90
25949;DHT22;13961;51.178;4.448;2022-08-19T00:24:35;20.60;99.90
25949;DHT22;13961;51.178;4.448;2022-08-19T00:27:02;20.90;99.90
25949;DHT22;13961;51.178;4.448;2022-08-19T00:29:28;21.00;99.90
25949;DHT22;13961;51.178;4.448;2022-08-19T00:31:54;20.70;99.90
25949;DHT22;13961;51.178;4.448;2022-08-19T00:34:21;20.70;99.90
25949;DHT22;13961;51.178;4.448;2022-08-19T00:36:48;20.70;99.90
25949;DHT22;13961;51.178;4.448;2022-08-19T00:39:15;20.80;99.90
25949;DHT22;13961;51.178;4.448;2022-08-19T00:41:43;20.70;99.90
25949;DHT22;13961;51.178;4.448;2022-08-19T00:44:18;20.70;99.90
25949;DHT22;13961;51.178;4.448;2022-08-19T00:46:46;20.70;99.90
25949;DHT22;13961;51.178;4.448;2022-08-19T00:49:18;20.60;99.90
25949;DHT22;13961;51.178;4.448;2022-08-19T00:51:48;20.70;99.90
25949;DHT22;13961;51.178;4.448;2022-08-19T00:54:15;20.90;99.90
25949;DHT22;13961;51.178;4.448;2022-08-19T00:56:41;21.00;99.90
25949;DHT22;13961;51.178;4.448;2022-08-19T00:59:08;21.00;99.90
25949;DHT22;13961;51.178;4.448;2022-08-19T01:01:39;21.00;99.90
25949;DHT22;13961;51.178;4.448;2022-08-19T01:04:06;20.90;99.90
25949;DHT22;13961;51.178;4.448;2022-08-19T01:06:33;21.00;99.90
25949;DHT22;13961;51.178;4.448;2022-08-19T01:09:00;21.00;99.90
25949;DHT22;13961;51.178;4.448;2022-08-19T01:11:30;21.00;99.90
25949;DHT22;13961;51.178;4.448;2022-08-19T01:13:57;20.90;99.90
25949;DHT22;13961;51.178;4.448;2022-08-19T01:16:25;20.80;99.90
25949;DHT22;13961;51.178;4.448;2022-08-19T01:18:52;20.70;99.90
25949;DHT22;13961;51.178;4.448;2022-08-19T01:23:51;20.30;99.90
25949;DHT22;13961;51.178;4.448;2022-08-19T01:26:20;20.10;99.90
25949;DHT22;13961;51.178;4.448;2022-08-19T01:28:49;20.10;99.90
25949;DHT22;13961;51.178;4.448;2022-08-19T01:31:18;20.20;99.90
25949;DHT22;13961;51.178;4.448;2022-08-19T01:33:44;20.20;99.90
25949;DHT22;13961;51.178;4.448;2022-08-19T01:36:14;20.00;99.90
25949;DHT22;13961;51.178;4.448;2022-08-19T01:38:43;19.90;99.90
25949;DHT22;13961;51.178;4.448;2022-08-19T01:41:11;20.00;99.90
25949;DHT22;13961;51.178;4.448;2022-08-19T01:43:37;20.10;99.90
25949;DHT22;13961;51.178;4.448;2022-08-19T01:46:03;20.00;99.90
25949;DHT22;13961;51.178;4.448;2022-08-19T01:48:38;19.90;99.90
25949;DHT22;13961;51.178;4.448;2022-08-19T01:51:05;19.70;99.90
25949;DHT22;13961;51.178;4.448;2022-08-19T01:53:31;19.80;99.90
25949;DHT22;13961;51.178;4.448;2022-08-19T01:55:57;19.90;99.90
25949;DHT22;13961;51.178;4.448;2022-08-19T01:58:30;20.10;99.90
25949;DHT22;13961;51.178;4.448;2022-08-19T02:00:57;20.10;99.90
25949;DHT22;13961;51.178;4.448;2022-08-19T02:03:23;20.00;99.90
25949;DHT22;13961;51.178;4.448;2022-08-19T02:05:57;20.00;99.90
25949;DHT22;13961;51.178;4.448;2022-08-19T02:08:28;20.20;99.90
25949;DHT22;13961;51.178;4.448;2022-08-19T02:10:54;20.10;99.90
25949;DHT22;13961;51.178;4.448;2022-08-19T02:13:20;20.10;99.90
25949;DHT22;13961;51.178;4.448;2022-08-19T02:15:45;20.00;99.90
25949;DHT22;13961;51.178;4.448;2022-08-19T02:18:11;20.00;99.90
25949;DHT22;13961;51.178;4.448;2022-08-19T02:20:38;20.20;99.90
25949;DHT22;13961;51.178;4.448;2022-08-19T02:23:06;20.20;99.90
25949;DHT22;13961;51.178;4.448;2022-08-19T02:25:33;20.00;99.90
25949;DHT22;13961;51.178;4.448;2022-08-19T02:27:59;20.00;99.90
25949;DHT22;13961;51.178;4.448;2022-08-19T02:30:24;20.00;99.90
25949;DHT22;13961;51.178;4.448;2022-08-19T02:32:51;19.90;99.90
25949;DHT22;13961;51.178;4.448;2022-08-19T02:35:16;19.70;99.90
25949;DHT22;13961;51.178;4.448;2022-08-19T02:37:43;19.60;99.90
25949;DHT22;13961;51.178;4.448;2022-08-19T02:40:28;19.50;99.90
25949;DHT22;13961;51.178;4.448;2022-08-19T02:42:55;19.40;99.90
25949;DHT22;13961;51.178;4.448;2022-08-19T02:45:21;19.40;99.90
25949;DHT22;13961;51.178;4.448;2022-08-19T02:47:47;19.50;99.90
25949;DHT22;13961;51.178;4.448;2022-08-19T02:50:12;19.40;99.90
25949;DHT22;13961;51.178;4.448;2022-08-19T02:52:39;19.50;99.90
25949;DHT22;13961;51.178;4.448;2022-08-19T02:55:05;19.60;99.90
25949;DHT22;13961;51.178;4.448;2022-08-19T02:57:31;19.50;99.90
25949;DHT22;13961;51.178;4.448;2022-08-19T02:59:58;19.40;99.90
25949;DHT22;13961;51.178;4.448;2022-08-19T03:02:23;19.20;99.90
25949;DHT22;13961;51.178;4.448;2022-08-19T03:04:49;19.00;99.90
25949;DHT22;13961;51.178;4.448;2022-08-19T03:07:16;19.00;99.90
25949;DHT22;13961;51.178;4.448;2022-08-19T03:09:43;19.10;99.90
25949;DHT22;13961;51.178;4.448;2022-08-19T03:12:10;19.20;99.90
25949;DHT22;13961;51.178;4.448;2022-08-19T03:14:36;19.10;99.90
25949;DHT22;13961;51.178;4.448;2022-08-19T03:17:02;19.10;99.90
25949;DHT22;13961;51.178;4.448;2022-08-19T03:19:28;18.90;99.90
25949;DHT22;13961;51.178;4.448;2022-08-19T03:21:54;19.00;99.90
25949;DHT22;13961;51.178;4.448;2022-08-19T03:24:21;19.10;99.90
25949;DHT22;13961;51.178;4.448;2022-08-19T03:26:53;19.00;99.90
25949;DHT22;13961;51.178;4.448;2022-08-19T03:29:23;18.90;99.90
25949;DHT22;13961;51.178;4.448;2022-08-19T03:31:50;18.90;99.90
25949;DHT22;13961;51.178;4.448;2022-08-19T03:34:28;19.00;99.90
25949;DHT22;13961;51.178;4.448;2022-08-19T03:36:57;19.10;99.90
25949;DHT22;13961;51.178;4.448;2022-08-19T03:39:24;19.00;99.90
25949;DHT22;13961;51.178;4.448;2022-08-19T03:41:53;19.00;99.90
25949;DHT22;13961;51.178;4.448;2022-08-19T03:44:22;18.90;99.90
25949;DHT22;13961;51.178;4.448;2022-08-19T03:46:53;18.90;99.90
25949;DHT22;13961;51.178;4.448;2022-08-19T03:49:21;18.90;99.90
25949;DHT22;13961;51.178;4.448;2022-08-19T03:51:48;18.60;99.90
25949;DHT22;13961;51.178;4.448;2022-08-19T03:54:18;18.50;99.90
25949;DHT22;13961;51.178;4.448;2022-08-19T03:56:46;18.30;99.90
25949;DHT22;13961;51.178;4.448;2022-08-19T03:59:16;18.30;99.90
25949;DHT22;13961;51.178;4.448;2022-08-19T04:01:42;18.30;99.90
25949;DHT22;13961;51.178;4.448;2022-08-19T04:04:08;18.50;99.90
25949;DHT22;13961;51.178;4.448;2022-08-19T04:06:36;18.40;99.90
25949;DHT22;13961;51.178;4.448;2022-08-19T04:09:05;18.30;99.90
25949;DHT22;13961;51.178;4.448;2022-08-19T04:11:35;18.40;99.90
25949;DHT22;13961;51.178;4.448;2022-08-19T04:14:01;18.50;99.90
25949;DHT22;13961;51.178;4.448;2022-08-19T04:16:28;18.70;99.90
25949;DHT22;13961;51.178;4.448;2022-08-19T04:18:55;18.80;99.90
25949;DHT22;13961;51.178;4.448;2022-08-19T04:21:25;18.70;99.90
25949;DHT22;13961;51.178;4.448;2022-08-19T04:23:52;18.70;99.90
25949;DHT22;13961;51.178;4.448;2022-08-19T04:26:21;18.70;99.90
25949;DHT22;13961;51.178;4.448;2022-08-19T04:28:47;18.80;99.90
25949;DHT22;13961;51.178;4.448;2022-08-19T04:31:20;18.80;99.90
25949;DHT22;13961;51.178;4.448;2022-08-19T04:33:47;18.60;99.90
25949;DHT22;13961;51.178;4.448;2022-08-19T04:36:21;18.50;99.90
25949;DHT22;13961;51.178;4.448;2022-08-19T04:38:48;18.40;99.90
25949;DHT22;13961;51.178;4.448;2022-08-19T04:41:14;18.30;99.90
25949;DHT22;13961;51.178;4.448;2022-08-19T04:43:59;18.30;99.90
25949;DHT22;13961;51.178;4.448;2022-08-19T04:46:24;18.40;99.90
25949;DHT22;13961;51.178;4.448;2022-08-19T04:48:50;18.30;99.90
25949;DHT22;13961;51.178;4.448;2022-08-19T04:51:16;18.40;99.90
25949;DHT22;13961;51.178;4.448;2022-08-19T04:53:42;18.20;99.90
25949;DHT22;13961;51.178;4.448;2022-08-19T04:56:13;18.20;99.90
25949;DHT22;13961;51.178;4.448;2022-08-19T04:58:42;18.20;99.90
25949;DHT22;13961;51.178;4.448;2022-08-19T05:01:11;18.40;99.90
25949;DHT22;13961;51.178;4.448;2022-08-19T05:03:37;18.20;99.90
25949;DHT22;13961;51.178;4.448;2022-08-19T05:06:09;18.30;99.90
25949;DHT22;13961;51.178;4.448;2022-08-19T05:08:37;18.40;99.90
25949;DHT22;13961;51.178;4.448;2022-08-19T05:11:35;18.50;99.90
25949;DHT22;13961;51.178;4.448;2022-08-19T05:14:00;18.40;99.90
25949;DHT22;13961;51.178;4.448;2022-08-19T05:16:26;18.50;99.90
25949;DHT22;13961;51.178;4.448;2022-08-19T05:18:53;18.50;99.90
25949;DHT22;13961;51.178;4.448;2022-08-19T05:21:39;18.50;99.90
25949;DHT22;13961;51.178;4.448;2022-08-19T05:24:26;18.60;99.90
25949;DHT22;13961;51.178;4.448;2022-08-19T05:26:54;18.60;99.90
25949;DHT22;13961;51.178;4.448;2022-08-19T05:29:23;18.70;99.90
25949;DHT22;13961;51.178;4.448;2022-08-19T05:31:50;18.80;99.90
25949;DHT22;13961;51.178;4.448;2022-08-19T05:34:18;19.00;99.90
25949;DHT22;13961;51.178;4.448;2022-08-19T05:36:47;18.90;99.90
25949;DHT22;13961;51.178;4.448;2022-08-19T05:39:17;18.90;99.90
25949;DHT22;13961;51.178;4.448;2022-08-19T05:41:48;19.00;99.90
25949;DHT22;13961;51.178;4.448;2022-08-19T05:44:15;18.80;99.90
25949;DHT22;13961;51.178;4.448;2022-08-19T05:46:43;18.80;99.90
25949;DHT22;13961;51.178;4.448;2022-08-19T05:49:13;19.00;99.90
25949;DHT22;13961;51.178;4.448;2022-08-19T05:51:39;19.00;99.90
25949;DHT22;13961;51.178;4.448;2022-08-19T05:54:05;19.00;99.90
25949;DHT22;13961;51.178;4.448;2022-08-19T05:56:32;19.10;99.90
25949;DHT22;13961;51.178;4.448;2022-08-19T05:59:00;19.30;99.90
25949;DHT22;13961;51.178;4.448;2022-08-19T06:01:26;19.30;99.90
25949;DHT22;13961;51.178;4.448;2022-08-19T06:03:52;19.40;99.90
25949;DHT22;13961;51.178;4.448;2022-08-19T06:06:18;19.60;99.90
25949;DHT22;13961;51.178;4.448;2022-08-19T06:08:45;19.90;99.90
25949;DHT22;13961;51.178;4.448;2022-08-19T06:11:45;20.00;99.90
25949;DHT22;13961;51.178;4.448;2022-08-19T06:14:17;20.10;99.90
25949;DHT22;13961;51.178;4.448;2022-08-19T06:16:44;20.30;99.90
25949;DHT22;13961;51.178;4.448;2022-08-19T06:19:17;20.50;99.90
25949;DHT22;13961;51.178;4.448;2022-08-19T06:21:45;20.70;99.90
25949;DHT22;13961;51.178;4.448;2022-08-19T06:24:13;20.40;99.90
25949;DHT22;13961;51.178;4.448;2022-08-19T06:26:43;20.20;99.90
25949;DHT22;13961;51.178;4.448;2022-08-19T06:29:11;20.10;99.90
25949;DHT22;13961;51.178;4.448;2022-08-19T06:31:37;20.20;99.90
25949;DHT22;13961;51.178;4.448;2022-08-19T06:34:05;20.00;99.90
25949;DHT22;13961;51.178;4.448;2022-08-19T06:36:36;20.20;99.90
25949;DHT22;13961;51.178;4.448;2022-08-19T06:39:04;20.20;99.90
25949;DHT22;13961;51.178;4.448;2022-08-19T06:41:31;19.90;99.90
25949;DHT22;13961;51.178;4.448;2022-08-19T06:43:59;19.90;99.90
25949;DHT22;13961;51.178;4.448;2022-08-19T06:46:25;20.00;99.90
25949;DHT22;13961;51.178;4.448;2022-08-19T06:48:52;20.00;99.90
25949;DHT22;13961;51.178;4.448;2022-08-19T06:51:19;20.30;99.90
25949;DHT22;13961;51.178;4.448;2022-08-19T06:53:48;20.30;99.90
25949;DHT22;13961;51.178;4.448;2022-08-19T06:56:16;20.40;99.90
25949;DHT22;13961;51.178;4.448;2022-08-19T06:58:42;20.60;99.90
25949;DHT22;13961;51.178;4.448;2022-08-19T07:01:08;20.70;99.90
25949;DHT22;13961;51.178;4.448;2022-08-19T07:03:35;20.50;99.90
25949;DHT22;13961;51.178;4.448;2022-08-19T07:06:10;20.40;99.90
25949;DHT22;13961;51.178;4.448;2022-08-19T07:08:37;20.60;99.90
25949;DHT22;13961;51.178;4.448;2022-08-19T07:11:06;20.50;99.90
25949;DHT22;13961;51.178;4.448;2022-08-19T07:13:33;20.90;99.90
25949;DHT22;13961;51.178;4.448;2022-08-19T07:16:06;21.50;99.90
25949;DHT22;13961;51.178;4.448;2022-08-19T07:18:33;21.60;99.90
25949;DHT22;13961;51.178;4.448;2022-08-19T07:21:07;21.70;99.90
25949;DHT22;13961;51.178;4.448;2022-08-19T07:23:33;21.50;99.90
25949;DHT22;13961;51.178;4.448;2022-08-19T07:26:05;21.00;99.90
25949;DHT22;13961;51.178;4.448;2022-08-19T07:28:31;21.00;99.90
25949;DHT22;13961;51.178;4.448;2022-08-19T07:30:56;20.80;99.90
25949;DHT22;13961;51.178;4.448;2022-08-19T07:33:22;20.40;99.90
25949;DHT22;13961;51.178;4.448;2022-08-19T07:35:48;20.60;99.90
25949;DHT22;13961;51.178;4.448;2022-08-19T07:38:15;21.00;99.90
25949;DHT22;13961;51.178;4.448;2022-08-19T07:40:42;21.30;99.90
25949;DHT22;13961;51.178;4.448;2022-08-19T07:43:11;21.60;99.90
25949;DHT22;13961;51.178;4.448;2022-08-19T07:45:38;21.80;99.90
25949;DHT22;13961;51.178;4.448;2022-08-19T07:48:04;21.70;99.90
25949;DHT22;13961;51.178;4.448;2022-08-19T07:50:29;21.60;99.90
25949;DHT22;13961;51.178;4.448;2022-08-19T07:52:55;21.70;99.90
25949;DHT22;13961;51.178;4.448;2022-08-19T07:55:25;21.90;99.90
25949;DHT22;13961;51.178;4.448;2022-08-19T07:57:50;21.90;99.90
25949;DHT22;13961;51.178;4.448;2022-08-19T08:00:18;22.00;99.90
25949;DHT22;13961;51.178;4.448;2022-08-19T08:02:43;22.10;99.90
25949;DHT22;13961;51.178;4.448;2022-08-19T08:05:10;22.10;99.90
25949;DHT22;13961;51.178;4.448;2022-08-19T08:07:54;22.10;99.90
25949;DHT22;13961;51.178;4.448;2022-08-19T08:10:39;21.90;99.90
25949;DHT22;13961;51.178;4.448;2022-08-19T08:13:05;21.70;99.90
25949;DHT22;13961;51.178;4.448;2022-08-19T08:15:31;21.80;99.90
25949;DHT22;13961;51.178;4.448;2022-08-19T08:17:57;22.00;99.90
25949;DHT22;13961;51.178;4.448;2022-08-19T08:20:24;22.20;99.90
25949;DHT22;13961;51.178;4.448;2022-08-19T08:22:50;22.30;99.90
25949;DHT22;13961;51.178;4.448;2022-08-19T08:25:35;22.50;99.90
25949;DHT22;13961;51.178;4.448;2022-08-19T08:28:02;22.60;99.90
25949;DHT22;13961;51.178;4.448;2022-08-19T08:30:29;22.90;99.90
25949;DHT22;13961;51.178;4.448;2022-08-19T08:32:55;22.70;99.90
25949;DHT22;13961;51.178;4.448;2022-08-19T08:35:23;22.70;99.90
25949;DHT22;13961;51.178;4.448;2022-08-19T08:37:50;22.60;99.90
25949;DHT22;13961;51.178;4.448;2022-08-19T08:40:26;22.80;99.90
25949;DHT22;13961;51.178;4.448;2022-08-19T08:45:30;22.50;99.90
25949;DHT22;13961;51.178;4.448;2022-08-19T08:48:02;22.60;99.90
25949;DHT22;13961;51.178;4.448;2022-08-19T08:50:37;22.90;99.90
25949;DHT22;13961;51.178;4.448;2022-08-19T08:53:03;22.50;99.90
25949;DHT22;13961;51.178;4.448;2022-08-19T08:55:31;22.30;99.90
25949;DHT22;13961;51.178;4.448;2022-08-19T08:58:27;22.10;99.90
25949;DHT22;13961;51.178;4.448;2022-08-19T09:00:56;22.30;99.90
25949;DHT22;13961;51.178;4.448;2022-08-19T09:03:25;22.40;99.90
25949;DHT22;13961;51.178;4.448;2022-08-19T09:06:14;22.50;99.90
25949;DHT22;13961;51.178;4.448;2022-08-19T09:11:50;22.30;99.90
25949;DHT22;13961;51.178;4.448;2022-08-19T09:17:09;22.80;99.90
25949;DHT22;13961;51.178;4.448;2022-08-19T09:19:46;22.80;99.90
25949;DHT22;13961;51.178;4.448;2022-08-19T09:22:13;22.70;99.90
25949;DHT22;13961;51.178;4.448;2022-08-19T09:24:39;22.90;99.90
25949;DHT22;13961;51.178;4.448;2022-08-19T09:27:06;23.20;99.90
25949;DHT22;13961;51.178;4.448;2022-08-19T09:29:31;23.30;99.90
25949;DHT22;13961;51.178;4.448;2022-08-19T09:31:57;23.20;99.90
25949;DHT22;13961;51.178;4.448;2022-08-19T09:34:22;23.10;99.90
25949;DHT22;13961;51.178;4.448;2022-08-19T09:36:51;22.90;99.90
25949;DHT22;13961;51.178;4.448;2022-08-19T09:39:19;22.90;99.90
25949;DHT22;13961;51.178;4.448;2022-08-19T09:41:45;22.80;99.90
25949;DHT22;13961;51.178;4.448;2022-08-19T09:44:10;22.90;99.90
25949;DHT22;13961;51.178;4.448;2022-08-19T09:46:38;22.40;99.90
25949;DHT22;13961;51.178;4.448;2022-08-19T09:49:03;22.40;99.90
25949;DHT22;13961;51.178;4.448;2022-08-19T09:51:31;22.40;99.90
25949;DHT22;13961;51.178;4.448;2022-08-19T09:54:03;22.40;99.90
25949;DHT22;13961;51.178;4.448;2022-08-19T09:56:29;22.60;99.90
25949;DHT22;13961;51.178;4.448;2022-08-19T09:58:58;22.60;99.90
25949;DHT22;13961;51.178;4.448;2022-08-19T10:01:26;22.80;99.90
25949;DHT22;13961;51.178;4.448;2022-08-19T10:03:54;23.10;99.90
25949;DHT22;13961;51.178;4.448;2022-08-19T10:06:22;23.40;99.90
25949;DHT22;13961;51.178;4.448;2022-08-19T10:08:48;23.30;99.90
25949;DHT22;13961;51.178;4.448;2022-08-19T10:11:14;23.00;99.90
25949;DHT22;13961;51.178;4.448;2022-08-19T10:13:42;23.20;99.90
25949;DHT22;13961;51.178;4.448;2022-08-19T10:16:14;23.50;99.90
25949;DHT22;13961;51.178;4.448;2022-08-19T10:18:40;23.20;99.90
25949;DHT22;13961;51.178;4.448;2022-08-19T10:21:10;23.00;99.90
25949;DHT22;13961;51.178;4.448;2022-08-19T10:23:38;22.80;99.90
25949;DHT22;13961;51.178;4.448;2022-08-19T10:26:06;22.70;99.90
25949;DHT22;13961;51.178;4.448;2022-08-19T10:28:35;22.90;99.90
25949;DHT22;13961;51.178;4.448;2022-08-19T10:31:06;23.00;99.90
25949;DHT22;13961;51.178;4.448;2022-08-19T10:33:33;22.80;99.90
25949;DHT22;13961;51.178;4.448;2022-08-19T10:36:03;22.60;99.90
25949;DHT22;13961;51.178;4.448;2022-08-19T10:38:29;22.70;99.90
25949;DHT22;13961;51.178;4.448;2022-08-19T10:40:57;23.00;99.90
25949;DHT22;13961;51.178;4.448;2022-08-19T10:43:23;23.00;99.90
25949;DHT22;13961;51.178;4.448;2022-08-19T10:45:54;23.20;99.90
25949;DHT22;13961;51.178;4.448;2022-08-19T10:48:23;23.20;99.90
25949;DHT22;13961;51.178;4.448;2022-08-19T10:50:49;23.30;99.90
25949;DHT22;13961;51.178;4.448;2022-08-19T10:53:33;23.30;99.90
25949;DHT22;13961;51.178;4.448;2022-08-19T10:55:59;23.30;99.90
25949;DHT22;13961;51.178;4.448;2022-08-19T10:58:42;23.20;99.90
25949;DHT22;13961;51.178;4.448;2022-08-19T11:01:09;23.10;99.90
25949;DHT22;13961;51.178;4.448;2022-08-19T11:03:35;23.20;99.90
25949;DHT22;13961;51.178;4.448;2022-08-19T11:06:06;23.20;99.90
25949;DHT22;13961;51.178;4.448;2022-08-19T11:08:35;23.20;99.90
25949;DHT22;13961;51.178;4.448;2022-08-19T11:11:04;23.30;99.90
25949;DHT22;13961;51.178;4.448;2022-08-19T11:13:31;23.50;99.90
25949;DHT22;13961;51.178;4.448;2022-08-19T11:16:00;23.80;99.90
25949;DHT22;13961;51.178;4.448;2022-08-19T11:18:26;23.70;99.90
25949;DHT22;13961;51.178;4.448;2022-08-19T11:20:52;24.10;99.90
25949;DHT22;13961;51.178;4.448;2022-08-19T11:23:18;24.30;99.90
25949;DHT22;13961;51.178;4.448;2022-08-19T11:25:44;24.00;99.90
25949;DHT22;13961;51.178;4.448;2022-08-19T11:28:11;24.50;99.90
25949;DHT22;13961;51.178;4.448;2022-08-19T11:30:37;24.50;99.90
25949;DHT22;13961;51.178;4.448;2022-08-19T11:33:03;24.50;99.90
25949;DHT22;13961;51.178;4.448;2022-08-19T11:35:28;24.60;99.90
25949;DHT22;13961;51.178;4.448;2022-08-19T11:37:54;24.30;99.90
25949;DHT22;13961;51.178;4.448;2022-08-19T11:40:21;24.30;99.90
25949;DHT22;13961;51.178;4.448;2022-08-19T11:42:47;24.80;99.90
25949;DHT22;13961;51.178;4.448;2022-08-19T11:45:23;25.30;99.90
25949;DHT22;13961;51.178;4.448;2022-08-19T11:47:49;25.90;99.90
25949;DHT22;13961;51.178;4.448;2022-08-19T11:50:15;26.20;99.90
25949;DHT22;13961;51.178;4.448;2022-08-19T11:52:41;26.40;99.90
25949;DHT22;13961;51.178;4.448;2022-08-19T11:55:08;26.40;99.90
25949;DHT22;13961;51.178;4.448;2022-08-19T11:57:34;26.30;99.90
25949;DHT22;13961;51.178;4.448;2022-08-19T11:59:59;25.90;99.90
25949;DHT22;13961;51.178;4.448;2022-08-19T12:02:25;25.80;99.90
25949;DHT22;13961;51.178;4.448;2022-08-19T12:04:50;25.70;99.90
25949;DHT22;13961;51.178;4.448;2022-08-19T12:07:16;25.80;99.90
25949;DHT22;13961;51.178;4.448;2022-08-19T12:09:42;25.80;99.90
25949;DHT22;13961;51.178;4.448;2022-08-19T12:12:08;25.80;99.90
25949;DHT22;13961;51.178;4.448;2022-08-19T12:14:34;25.70;99.90
25949;DHT22;13961;51.178;4.448;2022-08-19T12:17:00;25.70;99.90
25949;DHT22;13961;51.178;4.448;2022-08-19T12:19:27;26.00;99.90
25949;DHT22;13961;51.178;4.448;2022-08-19T12:21:58;26.40;99.90
25949;DHT22;13961;51.178;4.448;2022-08-19T12:24:26;26.40;99.90
25949;DHT22;13961;51.178;4.448;2022-08-19T12:26:51;26.60;99.90
25949;DHT22;13961;51.178;4.448;2022-08-19T12:29:18;26.70;99.90
25949;DHT22;13961;51.178;4.448;2022-08-19T12:31:44;26.90;99.90
25949;DHT22;13961;51.178;4.448;2022-08-19T12:34:09;26.80;99.90
25949;DHT22;13961;51.178;4.448;2022-08-19T12:36:35;27.00;99.90
25949;DHT22;13961;51.178;4.448;2022-08-19T12:39:01;26.90;99.90
25949;DHT22;13961;51.178;4.448;2022-08-19T12:41:26;27.30;99.90
25949;DHT22;13961;51.178;4.448;2022-08-19T12:43:52;27.00;99.90
25949;DHT22;13961;51.178;4.448;2022-08-19T12:46:18;26.50;99.90
25949;DHT22;13961;51.178;4.448;2022-08-19T12:48:45;26.10;99.90
25949;DHT22;13961;51.178;4.448;2022-08-19T12:51:13;25.80;99.90
25949;DHT22;13961;51.178;4.448;2022-08-19T12:53:41;25.90;99.90
25949;DHT22;13961;51.178;4.448;2022-08-19T12:56:08;25.90;99.90
25949;DHT22;13961;51.178;4.448;2022-08-19T12:58:34;26.20;99.90
25949;DHT22;13961;51.178;4.448;2022-08-19T13:01:06;26.40;99.90
25949;DHT22;13961;51.178;4.448;2022-08-19T13:03:32;26.50;99.90
25949;DHT22;13961;51.178;4.448;2022-08-19T13:05:58;26.70;99.90
25949;DHT22;13961;51.178;4.448;2022-08-19T13:08:24;26.90;99.90
25949;DHT22;13961;51.178;4.448;2022-08-19T13:10:49;27.00;99.90
25949;DHT22;13961;51.178;4.448;2022-08-19T13:13:15;26.20;99.90
25949;DHT22;13961;51.178;4.448;2022-08-19T13:15:41;25.80;99.90
25949;DHT22;13961;51.178;4.448;2022-08-19T13:18:09;26.20;99.90
25949;DHT22;13961;51.178;4.448;2022-08-19T13:20:36;26.60;99.90
25949;DHT22;13961;51.178;4.448;2022-08-19T13:23:02;26.70;99.90
25949;DHT22;13961;51.178;4.448;2022-08-19T13:25:27;26.70;99.90
25949;DHT22;13961;51.178;4.448;2022-08-19T13:27:53;26.90;99.90
25949;DHT22;13961;51.178;4.448;2022-08-19T13:30:21;26.80;99.90
25949;DHT22;13961;51.178;4.448;2022-08-19T13:33:06;26.50;99.90
25949;DHT22;13961;51.178;4.448;2022-08-19T13:35:50;26.70;99.90
25949;DHT22;13961;51.178;4.448;2022-08-19T13:38:21;27.50;99.90
25949;DHT22;13961;51.178;4.448;2022-08-19T13:40:48;27.80;99.90
25949;DHT22;13961;51.178;4.448;2022-08-19T13:43:15;28.10;99.90
25949;DHT22;13961;51.178;4.448;2022-08-19T13:45:41;28.20;99.90
25949;DHT22;13961;51.178;4.448;2022-08-19T13:48:07;27.30;99.90
25949;DHT22;13961;51.178;4.448;2022-08-19T13:50:38;27.40;99.90
25949;DHT22;13961;51.178;4.448;2022-08-19T13:53:04;27.30;99.90
25949;DHT22;13961;51.178;4.448;2022-08-19T13:55:30;27.40;99.90
25949;DHT22;13961;51.178;4.448;2022-08-19T13:57:59;27.50;99.90
25949;DHT22;13961;51.178;4.448;2022-08-19T14:00:29;27.70;99.90
25949;DHT22;13961;51.178;4.448;2022-08-19T14:02:56;27.70;99.90
25949;DHT22;13961;51.178;4.448;2022-08-19T14:05:23;27.50;99.90
25949;DHT22;13961;51.178;4.448;2022-08-19T14:07:49;28.00;99.90
25949;DHT22;13961;51.178;4.448;2022-08-19T14:10:17;28.00;99.90
25949;DHT22;13961;51.178;4.448;2022-08-19T14:12:43;26.80;99.90
25949;DHT22;13961;51.178;4.448;2022-08-19T14:15:10;26.80;99.90
25949;DHT22;13961;51.178;4.448;2022-08-19T14:17:40;26.60;99.90
25949;DHT22;13961;51.178;4.448;2022-08-19T14:20:08;26.70;99.90
25949;DHT22;13961;51.178;4.448;2022-08-19T14:22:39;26.80;99.90
25949;DHT22;13961;51.178;4.448;2022-08-19T14:25:08;27.00;99.90
25949;DHT22;13961;51.178;4.448;2022-08-19T14:27:35;26.60;99.90
25949;DHT22;13961;51.178;4.448;2022-08-19T14:30:02;26.50;99.90
25949;DHT22;13961;51.178;4.448;2022-08-19T14:32:28;26.50;99.90
25949;DHT22;13961;51.178;4.448;2022-08-19T14:34:54;26.70;99.90
25949;DHT22;13961;51.178;4.448;2022-08-19T14:37:20;26.60;99.90
25949;DHT22;13961;51.178;4.448;2022-08-19T14:39:47;26.30;99.90
25949;DHT22;13961;51.178;4.448;2022-08-19T14:42:13;25.50;99.90
25949;DHT22;13961;51.178;4.448;2022-08-19T14:44:42;25.50;99.90
25949;DHT22;13961;51.178;4.448;2022-08-19T14:47:09;25.60;99.90
25949;DHT22;13961;51.178;4.448;2022-08-19T14:49:35;25.70;99.90
25949;DHT22;13961;51.178;4.448;2022-08-19T14:52:01;25.40;99.90
25949;DHT22;13961;51.178;4.448;2022-08-19T14:54:28;25.00;99.90
25949;DHT22;13961;51.178;4.448;2022-08-19T14:56:54;24.40;99.90
25949;DHT22;13961;51.178;4.448;2022-08-19T14:59:19;23.90;99.90
25949;DHT22;13961;51.178;4.448;2022-08-19T15:01:45;23.60;99.90
25949;DHT22;13961;51.178;4.448;2022-08-19T15:04:11;23.30;99.90
25949;DHT22;13961;51.178;4.448;2022-08-19T15:06:36;22.90;99.90
25949;DHT22;13961;51.178;4.448;2022-08-19T15:09:03;23.00;99.90
25949;DHT22;13961;51.178;4.448;2022-08-19T15:11:29;22.60;99.90
25949;DHT22;13961;51.178;4.448;2022-08-19T15:13:58;22.50;99.90
25949;DHT22;13961;51.178;4.448;2022-08-19T15:16:25;22.50;99.90
25949;DHT22;13961;51.178;4.448;2022-08-19T15:18:53;22.80;99.90
25949;DHT22;13961;51.178;4.448;2022-08-19T15:21:20;22.70;99.90
25949;DHT22;13961;51.178;4.448;2022-08-19T15:23:47;22.70;99.90
25949;DHT22;13961;51.178;4.448;2022-08-19T15:26:14;22.80;99.90
25949;DHT22;13961;51.178;4.448;2022-08-19T15:28:40;22.50;99.90
25949;DHT22;13961;51.178;4.448;2022-08-19T15:31:05;22.70;99.90
25949;DHT22;13961;51.178;4.448;2022-08-19T15:33:32;23.00;99.90
25949;DHT22;13961;51.178;4.448;2022-08-19T15:36:01;23.40;99.90
25949;DHT22;13961;51.178;4.448;2022-08-19T15:38:28;23.60;99.90
25949;DHT22;13961;51.178;4.448;2022-08-19T15:40:54;24.10;99.90
25949;DHT22;13961;51.178;4.448;2022-08-19T15:43:41;24.30;99.90
25949;DHT22;13961;51.178;4.448;2022-08-19T15:46:07;24.50;99.90